Time;durP1;ratioP1;P1;durP2;ratioP2;P2;SDS_P1;SDS_P2;PMS_P1;PMS_P2;Temp;Humidity;BMP_temperature;BMP_pressure;BME280_temperature;BME280_humidity;BME280_pressure;Samples;Min_cycle;Max_cycle;Signal;HPM_P1;HPM_P2
2023/08/21 00:00:05;;;;;;;;;;;26.00;49.50;;;;;;5017079;28;82525;-45
2023/08/21 00:02:31;;;;;;;;;;;26.00;49.40;;;;;;5014776;28;84923;-46
2023/08/21 00:04:56;;;;;;;;;;;26.00;49.50;;;;;;5014731;28;82482;-45
2023/08/21 00:07:22;;;;;;;;;;;26.00;49.50;;;;;;5015454;28;83227;-45
2023/08/21 00:09:47;;;;;;;;;;;26.00;49.50;;;;;;5015813;28;82360;-45
2023/08/21 00:12:13;;;;;;;;;;;26.00;49.50;;;;;;5013826;28;81949;-43
2023/08/21 00:14:38;;;;;;;;;;;26.00;49.50;;;;;;5017225;28;82884;-43
2023/08/21 00:17:04;;;;;;;;;;;26.00;49.50;;;;;;5009495;28;84029;-44
2023/08/21 00:19:30;;;;;;;;;;;25.90;49.50;;;;;;5020230;28;82849;-45
2023/08/21 00:21:55;;;;;;;;;;;25.90;49.60;;;;;;5014644;28;83100;-46
2023/08/21 00:24:21;;;;;;;;;;;25.90;49.60;;;;;;5016423;28;82307;-46
2023/08/21 00:26:46;;;;;;;;;;;25.90;49.50;;;;;;5015772;28;82538;-45
2023/08/21 00:29:12;;;;;;;;;;;25.90;49.60;;;;;;5016589;28;83189;-46
2023/08/21 00:31:37;;;;;;;;;;;25.90;49.60;;;;;;5015059;28;82108;-43
2023/08/21 00:34:03;;;;;;;;;;;25.90;49.60;;;;;;5018034;28;82591;-42
2023/08/21 00:36:28;;;;;;;;;;;25.90;49.60;;;;;;5012859;28;83044;-44
2023/08/21 00:38:54;;;;;;;;;;;25.80;49.60;;;;;;5020320;28;82015;-43
2023/08/21 00:41:19;;;;;;;;;;;25.80;49.60;;;;;;5012128;28;85748;-45
2023/08/21 00:43:45;;;;;;;;;;;25.80;49.60;;;;;;5016398;28;82109;-45
2023/08/21 00:46:11;;;;;;;;;;;25.80;49.70;;;;;;5015748;28;82445;-45
2023/08/21 00:48:37;;;;;;;;;;;25.80;49.70;;;;;;5015413;28;82554;-45
2023/08/21 00:51:03;;;;;;;;;;;25.80;49.70;;;;;;5013630;28;82175;-45
2023/08/21 00:53:29;;;;;;;;;;;25.70;49.70;;;;;;5017118;28;82256;-45
2023/08/21 00:55:55;;;;;;;;;;;25.70;49.70;;;;;;5013313;28;83005;-42
2023/08/21 00:58:20;;;;;;;;;;;25.70;49.70;;;;;;5014327;28;81407;-43
2023/08/21 01:00:49;;;;;;;;;;;25.70;49.70;;;;;;5018877;28;81941;-48
2023/08/21 01:03:14;;;;;;;;;;;25.70;49.70;;;;;;5015425;28;82079;-45
2023/08/21 01:05:40;;;;;;;;;;;25.70;50.30;;;;;;5045836;27;83166;-44
2023/08/21 01:08:09;;;;;;;;;;;25.70;49.70;;;;;;5014669;28;82210;-45
2023/08/21 01:10:47;;;;;;;;;;;25.60;49.70;;;;;;5013377;28;82452;-43
2023/08/21 01:13:31;;;;;;;;;;;25.60;49.80;;;;;;5015140;28;82416;-45
2023/08/21 01:15:57;;;;;;;;;;;25.60;49.70;;;;;;5043825;27;84283;-45
2023/08/21 01:18:23;;;;;;;;;;;25.60;49.80;;;;;;5015576;28;82064;-45
2023/08/21 01:20:48;;;;;;;;;;;25.60;49.70;;;;;;5011198;28;86180;-45
2023/08/21 01:23:46;;;;;;;;;;;25.60;49.70;;;;;;5016381;28;82336;-43
2023/08/21 01:26:12;;;;;;;;;;;25.60;49.80;;;;;;5014669;28;83103;-46
2023/08/21 01:28:38;;;;;;;;;;;25.60;49.70;;;;;;5013464;28;83045;-44
2023/08/21 01:31:07;;;;;;;;;;;25.60;49.70;;;;;;5015708;28;82927;-43
2023/08/21 01:33:34;;;;;;;;;;;25.60;49.80;;;;;;5014967;28;83304;-43
2023/08/21 01:36:03;;;;;;;;;;;25.60;49.80;;;;;;5012500;28;83179;-45
2023/08/21 01:38:30;;;;;;;;;;;25.50;49.80;;;;;;5016653;28;82000;-44
2023/08/21 01:40:56;;;;;;;;;;;25.50;49.80;;;;;;5003702;28;82427;-43
2023/08/21 01:43:21;;;;;;;;;;;25.50;49.80;;;;;;5013761;28;83152;-43
2023/08/21 01:45:47;;;;;;;;;;;25.50;49.80;;;;;;5018671;28;82557;-44
2023/08/21 01:48:12;;;;;;;;;;;25.50;49.80;;;;;;5014994;28;82236;-46
2023/08/21 01:50:38;;;;;;;;;;;25.50;49.80;;;;;;5015145;28;82411;-45
2023/08/21 01:53:04;;;;;;;;;;;25.40;49.80;;;;;;5011269;28;82585;-45
2023/08/21 01:55:29;;;;;;;;;;;25.50;49.80;;;;;;5012758;28;84014;-42
2023/08/21 01:57:55;;;;;;;;;;;25.50;49.80;;;;;;5016381;28;82209;-44
2023/08/21 02:00:20;;;;;;;;;;;25.40;49.80;;;;;;5013297;28;82624;-44
2023/08/21 02:02:46;;;;;;;;;;;25.40;49.80;;;;;;5016158;28;82979;-43
2023/08/21 02:05:11;;;;;;;;;;;25.40;49.80;;;;;;5014007;28;82021;-44
2023/08/21 02:07:37;;;;;;;;;;;25.40;49.80;;;;;;5016364;28;82451;-43
2023/08/21 02:10:02;;;;;;;;;;;25.40;49.90;;;;;;5015011;28;82081;-43
2023/08/21 02:12:28;;;;;;;;;;;25.40;49.90;;;;;;5017180;28;82370;-43
2023/08/21 02:14:53;;;;;;;;;;;25.30;49.80;;;;;;5018482;28;82283;-46
2023/08/21 02:17:19;;;;;;;;;;;25.30;49.90;;;;;;5017102;28;81830;-45
2023/08/21 02:19:44;;;;;;;;;;;25.30;49.90;;;;;;5019270;28;82981;-45
2023/08/21 02:22:10;;;;;;;;;;;25.30;49.90;;;;;;5016964;28;82105;-46
2023/08/21 02:24:35;;;;;;;;;;;25.30;49.90;;;;;;5017100;28;82202;-44
2023/08/21 02:27:01;;;;;;;;;;;25.30;49.90;;;;;;5018322;28;82098;-46
2023/08/21 02:29:26;;;;;;;;;;;25.30;49.90;;;;;;5020891;28;82002;-44
2023/08/21 02:31:52;;;;;;;;;;;25.30;49.90;;;;;;5018238;28;82090;-43
2023/08/21 02:34:17;;;;;;;;;;;25.30;49.90;;;;;;5017152;28;83049;-43
2023/08/21 02:36:43;;;;;;;;;;;25.20;49.90;;;;;;5016245;28;81392;-46
2023/08/21 02:39:08;;;;;;;;;;;25.20;49.90;;;;;;5019401;28;81967;-42
2023/08/21 02:41:34;;;;;;;;;;;25.20;49.90;;;;;;5016180;28;82945;-46
2023/08/21 02:43:59;;;;;;;;;;;25.20;50.00;;;;;;5015910;28;83111;-45
2023/08/21 02:46:25;;;;;;;;;;;25.10;50.00;;;;;;5018889;28;83383;-44
2023/08/21 02:48:50;;;;;;;;;;;25.10;50.00;;;;;;5019709;28;83240;-45
2023/08/21 02:51:16;;;;;;;;;;;25.10;49.90;;;;;;5017917;28;82748;-44
2023/08/21 02:53:42;;;;;;;;;;;25.10;50.00;;;;;;5015711;28;82824;-45
2023/08/21 02:56:07;;;;;;;;;;;25.10;50.00;;;;;;5015627;28;82069;-45
2023/08/21 02:58:33;;;;;;;;;;;25.10;50.00;;;;;;5019237;28;82470;-43
2023/08/21 03:00:59;;;;;;;;;;;25.10;50.00;;;;;;5015879;28;81473;-43
2023/08/21 03:03:24;;;;;;;;;;;25.00;50.00;;;;;;5019323;28;82381;-45
2023/08/21 03:05:50;;;;;;;;;;;25.00;50.00;;;;;;5015896;28;82007;-47
2023/08/21 03:08:16;;;;;;;;;;;25.00;50.00;;;;;;5015411;28;84100;-45
2023/08/21 03:10:42;;;;;;;;;;;25.00;50.00;;;;;;5019662;28;82108;-43
2023/08/21 03:13:07;;;;;;;;;;;25.00;50.00;;;;;;5015205;28;83561;-45
2023/08/21 03:15:34;;;;;;;;;;;25.00;50.10;;;;;;5018424;28;82088;-43
2023/08/21 03:17:59;;;;;;;;;;;24.90;50.10;;;;;;5014386;28;83820;-45
2023/08/21 03:20:25;;;;;;;;;;;25.00;50.20;;;;;;5018986;28;83087;-45
2023/08/21 03:22:50;;;;;;;;;;;24.90;50.10;;;;;;5008208;28;82102;-45
2023/08/21 03:25:16;;;;;;;;;;;24.90;50.10;;;;;;5016827;28;82440;-45
2023/08/21 03:27:44;;;;;;;;;;;24.90;50.10;;;;;;5015131;28;83063;-45
2023/08/21 03:30:10;;;;;;;;;;;24.90;50.10;;;;;;5016738;28;82095;-45
2023/08/21 03:32:35;;;;;;;;;;;24.90;50.10;;;;;;5020044;28;85050;-43
2023/08/21 03:35:01;;;;;;;;;;;24.90;50.10;;;;;;5015901;28;82109;-44
2023/08/21 03:37:26;;;;;;;;;;;24.80;50.10;;;;;;5017223;28;82529;-44
2023/08/21 03:39:52;;;;;;;;;;;24.90;50.20;;;;;;5014821;28;83869;-45
2023/08/21 03:42:17;;;;;;;;;;;24.80;50.10;;;;;;5007457;28;83230;-43
2023/08/21 03:44:43;;;;;;;;;;;24.80;50.10;;;;;;5015065;28;82582;-44
2023/08/21 03:47:08;;;;;;;;;;;24.80;50.20;;;;;;5016506;28;82910;-45
2023/08/21 03:49:36;;;;;;;;;;;24.80;50.10;;;;;;5016956;28;81387;-44
2023/08/21 03:52:01;;;;;;;;;;;24.80;50.20;;;;;;5013135;28;82140;-45
2023/08/21 03:54:27;;;;;;;;;;;24.80;50.20;;;;;;5009193;28;83143;-45
2023/08/21 03:56:53;;;;;;;;;;;24.80;50.20;;;;;;5015556;28;82987;-43
2023/08/21 03:59:18;;;;;;;;;;;24.70;50.20;;;;;;5014953;28;83781;-45
2023/08/21 04:01:44;;;;;;;;;;;24.70;50.20;;;;;;5011024;28;82176;-44
2023/08/21 04:04:09;;;;;;;;;;;24.70;50.20;;;;;;5003799;28;82185;-44
2023/08/21 04:06:35;;;;;;;;;;;24.70;50.20;;;;;;5016685;28;82129;-43
2023/08/21 04:09:01;;;;;;;;;;;24.70;50.30;;;;;;5017128;28;82068;-44
2023/08/21 04:11:26;;;;;;;;;;;24.70;50.30;;;;;;5012557;28;82687;-46
2023/08/21 04:13:52;;;;;;;;;;;24.60;50.20;;;;;;5010949;28;83209;-44
2023/08/21 04:16:17;;;;;;;;;;;24.60;50.30;;;;;;5016982;28;82164;-43
2023/08/21 04:18:43;;;;;;;;;;;24.60;50.40;;;;;;5010604;28;83371;-44
2023/08/21 04:21:09;;;;;;;;;;;24.60;50.30;;;;;;5002290;28;83047;-46
2023/08/21 04:23:35;;;;;;;;;;;24.60;50.30;;;;;;5013885;28;83283;-44
2023/08/21 04:26:02;;;;;;;;;;;24.60;50.30;;;;;;5015987;28;83153;-45
2023/08/21 04:28:27;;;;;;;;;;;24.60;50.40;;;;;;5014829;28;82237;-45
2023/08/21 04:30:53;;;;;;;;;;;24.60;50.40;;;;;;5007124;28;82716;-46
2023/08/21 04:33:18;;;;;;;;;;;24.50;50.40;;;;;;5010931;28;82964;-42
2023/08/21 04:35:44;;;;;;;;;;;24.50;50.40;;;;;;5014132;28;82204;-46
2023/08/21 04:38:09;;;;;;;;;;;24.50;50.40;;;;;;5014864;28;82606;-45
2023/08/21 04:40:35;;;;;;;;;;;24.50;50.40;;;;;;5009060;28;83877;-45
2023/08/21 04:43:00;;;;;;;;;;;24.50;50.40;;;;;;5011399;28;82354;-43
2023/08/21 04:45:26;;;;;;;;;;;24.50;50.40;;;;;;5015138;28;83929;-44
2023/08/21 04:47:52;;;;;;;;;;;24.50;50.40;;;;;;5014889;28;82074;-45
2023/08/21 04:50:17;;;;;;;;;;;24.50;50.50;;;;;;5008865;28;82030;-45
2023/08/21 04:52:43;;;;;;;;;;;24.40;50.40;;;;;;5011407;28;81976;-46
2023/08/21 04:55:08;;;;;;;;;;;24.40;50.40;;;;;;5014103;28;82266;-43
2023/08/21 04:57:34;;;;;;;;;;;24.40;50.40;;;;;;5010092;28;82034;-43
2023/08/21 04:59:59;;;;;;;;;;;24.40;50.50;;;;;;5007275;28;82240;-45
2023/08/21 05:02:25;;;;;;;;;;;24.40;50.40;;;;;;5013171;28;82275;-43
2023/08/21 05:04:50;;;;;;;;;;;24.40;50.50;;;;;;5015883;28;83169;-43
2023/08/21 05:07:16;;;;;;;;;;;24.40;50.50;;;;;;5012191;28;82106;-42
2023/08/21 05:09:41;;;;;;;;;;;24.40;50.50;;;;;;5009966;28;83060;-43
2023/08/21 05:12:07;;;;;;;;;;;24.40;50.60;;;;;;5008036;28;83280;-43
2023/08/21 05:14:33;;;;;;;;;;;24.40;50.50;;;;;;5015432;28;82111;-43
2023/08/21 05:16:58;;;;;;;;;;;24.40;50.60;;;;;;5011761;28;82495;-43
2023/08/21 05:19:24;;;;;;;;;;;24.40;50.60;;;;;;5007056;28;83167;-44
2023/08/21 05:21:50;;;;;;;;;;;24.40;50.60;;;;;;5012909;28;82394;-43
2023/08/21 05:24:16;;;;;;;;;;;24.30;50.50;;;;;;5014722;28;83180;-44
2023/08/21 05:26:41;;;;;;;;;;;24.40;50.50;;;;;;5009924;28;81397;-45
2023/08/21 05:29:07;;;;;;;;;;;24.40;50.60;;;;;;5007745;28;82788;-45
2023/08/21 05:31:33;;;;;;;;;;;24.30;50.60;;;;;;5012970;28;82126;-45
2023/08/21 05:33:58;;;;;;;;;;;24.30;50.60;;;;;;5013127;28;82903;-44
2023/08/21 05:36:24;;;;;;;;;;;24.30;50.60;;;;;;5037751;27;86634;-43
2023/08/21 05:38:51;;;;;;;;;;;24.30;50.60;;;;;;5002277;28;83062;-46
2023/08/21 05:41:16;;;;;;;;;;;24.30;50.70;;;;;;5018830;28;81933;-44
2023/08/21 05:43:42;;;;;;;;;;;24.30;50.70;;;;;;5010609;28;83132;-43
2023/08/21 05:46:08;;;;;;;;;;;24.30;50.70;;;;;;5010333;28;82047;-44
2023/08/21 05:48:33;;;;;;;;;;;24.30;50.70;;;;;;5006694;28;87554;-45
2023/08/21 05:50:59;;;;;;;;;;;24.30;50.70;;;;;;5014280;28;86592;-43
2023/08/21 05:53:25;;;;;;;;;;;24.30;50.70;;;;;;5012664;28;87125;-45
2023/08/21 05:55:50;;;;;;;;;;;24.30;50.70;;;;;;5008831;28;87545;-44
2023/08/21 05:58:16;;;;;;;;;;;24.30;50.90;;;;;;5004273;28;88909;-45
2023/08/21 06:00:42;;;;;;;;;;;24.30;50.90;;;;;;5016149;28;87135;-44
2023/08/21 06:03:07;;;;;;;;;;;24.30;50.90;;;;;;5010599;28;88821;-48
2023/08/21 06:05:33;;;;;;;;;;;24.20;50.90;;;;;;5005814;28;87178;-46
2023/08/21 06:07:58;;;;;;;;;;;24.30;50.90;;;;;;5011335;28;87670;-46
2023/08/21 06:10:24;;;;;;;;;;;24.30;50.90;;;;;;5015899;28;88160;-46
2023/08/21 06:12:51;;;;;;;;;;;24.30;51.00;;;;;;5007614;28;87255;-46
2023/08/21 06:15:16;;;;;;;;;;;24.30;50.90;;;;;;5010341;28;87450;-45
2023/08/21 06:17:42;;;;;;;;;;;24.30;51.00;;;;;;5010886;28;88076;-43
2023/08/21 06:20:11;;;;;;;;;;;24.30;51.00;;;;;;5015707;28;87181;-43
2023/08/21 06:22:37;;;;;;;;;;;24.30;50.90;;;;;;5008630;28;88102;-46
2023/08/21 06:25:03;;;;;;;;;;;24.30;50.90;;;;;;5014222;28;87164;-44
2023/08/21 06:27:29;;;;;;;;;;;24.30;51.00;;;;;;5009444;28;89226;-46
2023/08/21 06:29:54;;;;;;;;;;;24.30;51.00;;;;;;5016148;28;88036;-45
2023/08/21 06:32:20;;;;;;;;;;;24.30;51.00;;;;;;5001973;28;87203;-45
2023/08/21 06:34:45;;;;;;;;;;;24.30;50.90;;;;;;5006689;28;87783;-44
2023/08/21 06:37:12;;;;;;;;;;;24.30;51.00;;;;;;5012019;28;89296;-42
2023/08/21 06:39:38;;;;;;;;;;;24.30;51.00;;;;;;5013792;28;88408;-46
2023/08/21 06:42:04;;;;;;;;;;;24.30;51.60;;;;;;5007326;28;87292;-43
2023/08/21 06:44:29;;;;;;;;;;;24.30;50.90;;;;;;4999853;28;88830;-45
2023/08/21 06:46:55;;;;;;;;;;;24.30;51.00;;;;;;5017724;28;87968;-43
2023/08/21 06:49:20;;;;;;;;;;;24.30;51.00;;;;;;5009123;28;91217;-44
2023/08/21 06:51:46;;;;;;;;;;;24.30;51.10;;;;;;5009408;28;87765;-44
2023/08/21 06:56:55;;;;;;;;;;;24.30;51.00;;;;;;5014561;28;87044;-46
2023/08/21 06:59:21;;;;;;;;;;;24.30;51.10;;;;;;5003413;28;87100;-43
2023/08/21 07:01:46;;;;;;;;;;;24.30;51.10;;;;;;5007170;28;87434;-45
2023/08/21 07:04:13;;;;;;;;;;;24.30;51.10;;;;;;5007359;28;87399;-46
2023/08/21 07:06:39;;;;;;;;;;;24.30;51.00;;;;;;5016445;28;87082;-45
2023/08/21 07:09:04;;;;;;;;;;;24.30;51.00;;;;;;5006793;28;88279;-44
2023/08/21 07:11:30;;;;;;;;;;;24.30;51.10;;;;;;5035170;27;88186;-46
2023/08/21 07:13:55;;;;;;;;;;;24.30;51.10;;;;;;5002361;28;88595;-45
2023/08/21 07:16:21;;;;;;;;;;;24.30;51.20;;;;;;5015449;28;87221;-46
2023/08/21 07:18:46;;;;;;;;;;;24.30;51.10;;;;;;5008970;28;87680;-45
2023/08/21 07:21:12;;;;;;;;;;;24.30;51.10;;;;;;5013225;28;88890;-45
2023/08/21 07:23:38;;;;;;;;;;;24.30;51.20;;;;;;5006192;28;88156;-45
2023/08/21 07:26:05;;;;;;;;;;;24.30;51.20;;;;;;5013777;28;87135;-44
2023/08/21 07:28:30;;;;;;;;;;;24.30;51.30;;;;;;5043363;27;89463;-45
2023/08/21 07:30:56;;;;;;;;;;;24.40;51.20;;;;;;5005498;28;87345;-44
2023/08/21 07:33:22;;;;;;;;;;;24.40;51.20;;;;;;5005340;28;87228;-46
2023/08/21 07:35:56;;;;;;;;;;;24.30;51.20;;;;;;5014350;28;89075;-45
2023/08/21 07:38:21;;;;;;;;;;;24.40;51.30;;;;;;5013248;28;87243;-47
2023/08/21 07:40:47;;;;;;;;;;;24.40;51.20;;;;;;5004367;28;87656;-45
2023/08/21 07:43:12;;;;;;;;;;;24.40;51.30;;;;;;5006793;28;88382;-46
2023/08/21 07:45:38;;;;;;;;;;;24.40;51.30;;;;;;5014662;28;87155;-46
2023/08/21 07:48:04;;;;;;;;;;;24.40;51.30;;;;;;5009692;28;87570;-44
2023/08/21 07:50:30;;;;;;;;;;;24.40;51.90;;;;;;5003865;28;88079;-45
2023/08/21 07:52:56;;;;;;;;;;;24.40;51.40;;;;;;5009163;28;87373;-44
2023/08/21 07:55:21;;;;;;;;;;;24.40;51.40;;;;;;5013766;28;88329;-44
2023/08/21 07:57:47;;;;;;;;;;;24.30;51.40;;;;;;5008567;28;87250;-44
2023/08/21 08:00:13;;;;;;;;;;;24.40;51.50;;;;;;5001461;28;88551;-44
2023/08/21 08:02:38;;;;;;;;;;;24.30;51.60;;;;;;5010830;28;88518;-44
2023/08/21 08:05:04;;;;;;;;;;;24.30;51.70;;;;;;5013827;28;87055;-43
2023/08/21 08:07:30;;;;;;;;;;;24.40;52.40;;;;;;5007564;28;87568;-44
2023/08/21 08:09:55;;;;;;;;;;;24.40;52.00;;;;;;5001118;28;87198;-45
2023/08/21 08:12:21;;;;;;;;;;;24.40;52.00;;;;;;5049099;27;87147;-43
2023/08/21 08:14:46;;;;;;;;;;;24.40;52.10;;;;;;5007866;28;88172;-44
2023/08/21 08:17:12;;;;;;;;;;;24.40;52.00;;;;;;5008572;28;86421;-46
2023/08/21 08:19:37;;;;;;;;;;;24.40;52.20;;;;;;5008503;28;87948;-44
2023/08/21 08:22:03;;;;;;;;;;;24.40;52.10;;;;;;5012098;28;88026;-44
2023/08/21 08:24:28;;;;;;;;;;;24.40;52.10;;;;;;5010194;28;88055;-46
2023/08/21 08:26:55;;;;;;;;;;;24.40;52.20;;;;;;5002384;28;88357;-46
2023/08/21 08:29:21;;;;;;;;;;;24.40;52.20;;;;;;5009965;28;88148;-43
2023/08/21 08:31:46;;;;;;;;;;;24.50;52.30;;;;;;5014132;28;87418;-43
2023/08/21 08:34:12;;;;;;;;;;;24.50;52.20;;;;;;5010860;28;87544;-44
2023/08/21 08:36:37;;;;;;;;;;;24.50;52.30;;;;;;5006788;28;88831;-45
2023/08/21 08:39:03;;;;;;;;;;;24.50;52.20;;;;;;5010003;28;87577;-44
2023/08/21 08:41:48;;;;;;;;;;;24.50;52.40;;;;;;5012499;28;87379;-44
2023/08/21 08:44:14;;;;;;;;;;;24.50;52.30;;;;;;5000131;28;87398;-43
2023/08/21 08:46:40;;;;;;;;;;;24.50;52.30;;;;;;5009717;28;87375;-43
2023/08/21 08:49:06;;;;;;;;;;;24.50;52.30;;;;;;5009249;28;89158;-43
2023/08/21 08:51:33;;;;;;;;;;;24.50;52.30;;;;;;5011130;28;87256;-45
2023/08/21 08:53:58;;;;;;;;;;;24.50;52.30;;;;;;5011341;28;87207;-45
2023/08/21 08:56:24;;;;;;;;;;;24.60;52.40;;;;;;5003840;28;87204;-44
2023/08/21 08:58:50;;;;;;;;;;;24.60;52.40;;;;;;5011332;28;87543;-43
2023/08/21 09:01:16;;;;;;;;;;;24.60;52.40;;;;;;5012375;28;88189;-45
2023/08/21 09:03:41;;;;;;;;;;;24.60;52.40;;;;;;4999787;28;87227;-44
2023/08/21 09:06:07;;;;;;;;;;;24.60;52.40;;;;;;5005843;28;87566;-45
2023/08/21 09:08:32;;;;;;;;;;;24.60;52.40;;;;;;5009472;28;88237;-45
2023/08/21 09:11:01;;;;;;;;;;;24.60;52.50;;;;;;5011721;28;88635;-44
2023/08/21 09:13:26;;;;;;;;;;;24.60;52.40;;;;;;5002767;28;88188;-45
2023/08/21 09:15:58;;;;;;;;;;;24.60;52.40;;;;;;5005722;28;88145;-43
2023/08/21 09:18:23;;;;;;;;;;;24.60;52.50;;;;;;5012245;28;87285;-45
2023/08/21 09:20:49;;;;;;;;;;;24.70;52.50;;;;;;5009203;28;88108;-45
2023/08/21 09:23:16;;;;;;;;;;;24.70;52.50;;;;;;5005350;28;87189;-45
2023/08/21 09:25:44;;;;;;;;;;;24.70;52.40;;;;;;5006101;28;87507;-45
2023/08/21 09:28:09;;;;;;;;;;;24.70;52.40;;;;;;5006594;28;89777;-45
2023/08/21 09:30:45;;;;;;;;;;;24.70;52.40;;;;;;5010380;28;87098;-43
2023/08/21 09:33:11;;;;;;;;;;;24.80;52.30;;;;;;5005672;28;87106;-44
2023/08/21 09:35:37;;;;;;;;;;;24.80;52.30;;;;;;5001058;28;88099;-46
2023/08/21 09:38:03;;;;;;;;;;;24.80;52.30;;;;;;5015930;28;88033;-45
2023/08/21 09:40:28;;;;;;;;;;;24.80;52.90;;;;;;5007433;28;87936;-44
2023/08/21 09:42:55;;;;;;;;;;;24.80;52.20;;;;;;5000929;28;87157;-46
2023/08/21 09:45:22;;;;;;;;;;;24.80;52.30;;;;;;5006984;28;87629;-44
2023/08/21 09:47:48;;;;;;;;;;;24.90;52.30;;;;;;5011188;28;88131;-45
2023/08/21 09:50:13;;;;;;;;;;;24.80;52.20;;;;;;4998854;28;87393;-42
2023/08/21 09:52:39;;;;;;;;;;;24.90;52.20;;;;;;5009040;28;87632;-45
2023/08/21 09:55:04;;;;;;;;;;;24.90;52.80;;;;;;5009632;28;86361;-43
2023/08/21 09:57:31;;;;;;;;;;;24.90;52.20;;;;;;5012214;28;87059;-44
2023/08/21 09:59:57;;;;;;;;;;;24.90;52.20;;;;;;5005816;28;87557;-43
2023/08/21 10:02:23;;;;;;;;;;;25.00;52.20;;;;;;5000597;28;89957;-46
2023/08/21 10:04:49;;;;;;;;;;;25.00;52.20;;;;;;5011621;28;88435;-44
2023/08/21 10:07:16;;;;;;;;;;;25.00;52.20;;;;;;5010167;28;88042;-43
2023/08/21 10:09:42;;;;;;;;;;;25.00;52.20;;;;;;5004738;28;87507;-47
2023/08/21 10:12:12;;;;;;;;;;;25.00;52.10;;;;;;4996570;28;88029;-44
2023/08/21 10:14:38;;;;;;;;;;;25.00;52.20;;;;;;5011478;28;88029;-45
2023/08/21 10:17:05;;;;;;;;;;;25.10;52.20;;;;;;5010375;28;87098;-43
2023/08/21 10:19:31;;;;;;;;;;;25.10;52.10;;;;;;5005039;28;87679;-43
2023/08/21 10:21:59;;;;;;;;;;;25.10;52.10;;;;;;5009389;28;88122;-44
2023/08/21 10:24:28;;;;;;;;;;;25.10;52.00;;;;;;5009874;28;87426;-44
2023/08/21 10:26:54;;;;;;;;;;;25.20;52.00;;;;;;5000219;28;89037;-46
2023/08/21 10:29:19;;;;;;;;;;;25.20;51.90;;;;;;5004925;28;87266;-43
2023/08/21 10:31:45;;;;;;;;;;;25.20;51.80;;;;;;5005205;28;87477;-43
2023/08/21 10:34:12;;;;;;;;;;;25.20;51.80;;;;;;5014401;28;87475;-44
2023/08/21 10:36:39;;;;;;;;;;;25.20;51.70;;;;;;5011292;28;87061;-44
2023/08/21 10:39:12;;;;;;;;;;;25.20;51.70;;;;;;5000533;28;87287;-45
2023/08/21 10:41:37;;;;;;;;;;;25.20;51.70;;;;;;5011105;28;87916;-45
2023/08/21 10:44:05;;;;;;;;;;;25.30;51.70;;;;;;5016813;28;86724;-45
2023/08/21 10:46:49;;;;;;;;;;;25.30;51.70;;;;;;5012140;28;88136;-43
2023/08/21 10:49:14;;;;;;;;;;;25.30;51.50;;;;;;5006543;28;87189;-44
2023/08/21 10:51:41;;;;;;;;;;;25.40;51.60;;;;;;5013663;28;88388;-44
2023/08/21 10:54:13;;;;;;;;;;;25.40;51.50;;;;;;5013238;28;88231;-43
2023/08/21 10:56:39;;;;;;;;;;;25.40;51.50;;;;;;5006861;28;87148;-45
2023/08/21 10:59:04;;;;;;;;;;;25.40;51.40;;;;;;5003248;28;87635;-45
2023/08/21 11:01:44;;;;;;;;;;;25.40;51.40;;;;;;5012202;28;87977;-43
2023/08/21 11:04:11;;;;;;;;;;;25.50;51.40;;;;;;5012897;28;87104;-46
2023/08/21 11:06:36;;;;;;;;;;;25.50;51.30;;;;;;4998022;28;88635;-43
2023/08/21 11:09:03;;;;;;;;;;;25.50;51.30;;;;;;5011409;28;86469;-45
2023/08/21 11:11:29;;;;;;;;;;;25.60;51.30;;;;;;5012713;28;86997;-45
2023/08/21 11:13:54;;;;;;;;;;;25.60;51.10;;;;;;5004931;28;88830;-44
2023/08/21 11:16:20;;;;;;;;;;;25.60;51.10;;;;;;5006605;28;88476;-49
2023/08/21 11:18:45;;;;;;;;;;;25.60;51.20;;;;;;5006295;28;88505;-45
2023/08/21 11:21:12;;;;;;;;;;;25.60;51.10;;;;;;5012832;28;91572;-43
2023/08/21 11:23:41;;;;;;;;;;;25.60;50.90;;;;;;5013266;28;88315;-46
2023/08/21 11:26:10;;;;;;;;;;;25.70;51.00;;;;;;5004389;28;87546;-43
2023/08/21 11:28:35;;;;;;;;;;;25.70;50.80;;;;;;5008579;28;87143;-45
2023/08/21 11:31:01;;;;;;;;;;;25.70;50.70;;;;;;5012363;28;87343;-45
2023/08/21 11:33:28;;;;;;;;;;;25.70;50.60;;;;;;5008460;28;88176;-45
2023/08/21 11:35:53;;;;;;;;;;;25.80;50.60;;;;;;5005245;28;87761;-45
2023/08/21 11:38:22;;;;;;;;;;;25.80;50.80;;;;;;5014189;28;87556;-46
2023/08/21 11:40:54;;;;;;;;;;;25.80;50.80;;;;;;5007320;28;89047;-44
2023/08/21 11:43:19;;;;;;;;;;;25.80;50.60;;;;;;5005124;28;87539;-43
2023/08/21 11:45:45;;;;;;;;;;;25.80;50.60;;;;;;5003116;28;88984;-43
2023/08/21 11:48:11;;;;;;;;;;;25.80;50.40;;;;;;5013572;28;88212;-43
2023/08/21 11:50:37;;;;;;;;;;;25.80;50.40;;;;;;5012262;28;87485;-43
2023/08/21 11:53:02;;;;;;;;;;;25.90;50.60;;;;;;5003840;28;88123;-45
2023/08/21 11:55:29;;;;;;;;;;;25.90;50.10;;;;;;5005460;28;87104;-45
2023/08/21 11:57:54;;;;;;;;;;;25.90;50.10;;;;;;5012874;28;87625;-46
2023/08/21 12:00:26;;;;;;;;;;;26.00;50.30;;;;;;5009398;28;87871;-44
2023/08/21 12:02:56;;;;;;;;;;;26.00;50.20;;;;;;5007502;28;88994;-44
2023/08/21 12:05:21;;;;;;;;;;;26.00;50.00;;;;;;5010688;28;88071;-46
2023/08/21 12:07:47;;;;;;;;;;;26.00;50.30;;;;;;5007199;28;88180;-44
2023/08/21 12:10:13;;;;;;;;;;;26.00;50.30;;;;;;5017257;28;87069;-46
2023/08/21 12:12:38;;;;;;;;;;;26.00;50.20;;;;;;5003563;28;90252;-43
2023/08/21 12:15:04;;;;;;;;;;;26.10;50.10;;;;;;5003400;28;87215;-43
2023/08/21 12:17:30;;;;;;;;;;;26.10;49.70;;;;;;5011065;28;87451;-45
2023/08/21 12:19:55;;;;;;;;;;;26.10;49.70;;;;;;5012074;28;88187;-46
2023/08/21 12:22:21;;;;;;;;;;;26.10;49.70;;;;;;5006031;28;87214;-43
2023/08/21 12:24:46;;;;;;;;;;;26.10;49.80;;;;;;5005487;28;87120;-43
2023/08/21 12:27:12;;;;;;;;;;;26.10;49.70;;;;;;5014101;28;88145;-43
2023/08/21 12:29:38;;;;;;;;;;;26.20;49.70;;;;;;5008521;28;88724;-43
2023/08/21 12:32:03;;;;;;;;;;;26.20;49.60;;;;;;5002834;28;87879;-43
2023/08/21 12:34:29;;;;;;;;;;;26.20;49.70;;;;;;5006762;28;87076;-43
2023/08/21 12:36:55;;;;;;;;;;;26.30;49.80;;;;;;5012545;28;87229;-45
2023/08/21 12:39:21;;;;;;;;;;;26.20;49.60;;;;;;5009347;28;88328;-43
2023/08/21 12:41:48;;;;;;;;;;;26.30;49.60;;;;;;5005899;28;87154;-43
2023/08/21 12:44:14;;;;;;;;;;;26.30;49.60;;;;;;5003133;28;87461;-43
2023/08/21 12:46:40;;;;;;;;;;;26.40;49.80;;;;;;5013863;28;87441;-43
2023/08/21 12:49:06;;;;;;;;;;;26.40;49.60;;;;;;5005492;28;87576;-44
2023/08/21 12:51:31;;;;;;;;;;;26.40;50.00;;;;;;5004780;28;87472;-43
2023/08/21 12:53:57;;;;;;;;;;;26.40;49.90;;;;;;5009884;28;88595;-44
2023/08/21 12:56:22;;;;;;;;;;;26.40;49.80;;;;;;5011456;28;88517;-45
2023/08/21 12:58:48;;;;;;;;;;;26.40;49.60;;;;;;5006921;28;87573;-45
2023/08/21 13:01:14;;;;;;;;;;;26.50;49.70;;;;;;5001947;28;87589;-45
2023/08/21 13:03:43;;;;;;;;;;;26.50;49.70;;;;;;5010461;28;87389;-45
2023/08/21 13:06:09;;;;;;;;;;;26.50;49.60;;;;;;5011470;28;88205;-43
2023/08/21 13:08:34;;;;;;;;;;;26.50;49.50;;;;;;5005011;28;87764;-44
2023/08/21 13:11:00;;;;;;;;;;;26.50;49.40;;;;;;5001504;28;87590;-45
2023/08/21 13:13:26;;;;;;;;;;;26.60;49.50;;;;;;5014352;28;89591;-44
2023/08/21 13:15:54;;;;;;;;;;;26.60;49.60;;;;;;5011349;28;87193;-45
2023/08/21 13:18:20;;;;;;;;;;;26.60;49.50;;;;;;5005935;28;89047;-42
2023/08/21 13:20:45;;;;;;;;;;;26.60;49.40;;;;;;5003843;28;88849;-45
2023/08/21 13:23:11;;;;;;;;;;;26.60;49.30;;;;;;5010946;28;87086;-45
2023/08/21 13:25:37;;;;;;;;;;;26.60;49.20;;;;;;5008309;28;88071;-46
2023/08/21 13:28:03;;;;;;;;;;;26.70;49.30;;;;;;5007794;28;87346;-44
2023/08/21 13:30:29;;;;;;;;;;;26.70;49.20;;;;;;5005948;28;87583;-46
2023/08/21 13:32:54;;;;;;;;;;;26.70;49.00;;;;;;5012772;28;87205;-45
2023/08/21 13:35:22;;;;;;;;;;;26.70;49.20;;;;;;5011786;28;86631;-43
2023/08/21 13:37:48;;;;;;;;;;;26.70;49.10;;;;;;5007562;28;88338;-44
2023/08/21 13:40:16;;;;;;;;;;;26.70;49.00;;;;;;5004554;28;89114;-43
2023/08/21 13:42:42;;;;;;;;;;;26.80;48.90;;;;;;5012028;28;88303;-45
2023/08/21 13:45:09;;;;;;;;;;;26.90;48.90;;;;;;5008259;28;88479;-43
2023/08/21 13:47:35;;;;;;;;;;;26.90;48.90;;;;;;5004712;28;87089;-46
2023/08/21 13:50:01;;;;;;;;;;;26.90;48.80;;;;;;4999907;28;87637;-44
2023/08/21 13:52:26;;;;;;;;;;;26.90;48.70;;;;;;5013444;28;87849;-46
2023/08/21 13:54:52;;;;;;;;;;;26.90;49.00;;;;;;5008915;28;87187;-44
2023/08/21 13:57:17;;;;;;;;;;;27.00;48.90;;;;;;5009567;28;87332;-43
2023/08/21 13:59:43;;;;;;;;;;;27.00;48.70;;;;;;5002330;28;87090;-45
2023/08/21 14:02:09;;;;;;;;;;;27.00;48.60;;;;;;5007877;28;88075;-46
2023/08/21 14:04:34;;;;;;;;;;;27.00;48.60;;;;;;5007626;28;88130;-46
2023/08/21 14:07:00;;;;;;;;;;;27.00;48.60;;;;;;5006738;28;88239;-44
2023/08/21 14:09:25;;;;;;;;;;;27.00;48.50;;;;;;5010873;28;87503;-46
2023/08/21 14:11:51;;;;;;;;;;;26.90;48.50;;;;;;5015978;28;88245;-43